Time;durP1;ratioP1;P1;durP2;ratioP2;P2;SDS_P1;SDS_P2;PMS_P1;PMS_P2;Temp;Humidity;BMP_temperature;BMP_pressure;BME280_temperature;BME280_humidity;BME280_pressure;Samples;Min_cycle;Max_cycle;Signal;HPM_P1;HPM_P2
2022/03/21 00:01:10;;;;;;;40.85;21.48;;;;;;;;;;5015737;28;20052;-70
2022/03/21 00:03:36;;;;;;;37.65;19.38;;;;;;;;;;5032615;28;20461;-70
2022/03/21 00:06:03;;;;;;;39.08;20.20;;;;;;;;;;5033627;28;20052;-70
2022/03/21 00:08:29;;;;;;;38.40;18.70;;;;;;;;;;5032289;28;20045;-70
2022/03/21 00:10:55;;;;;;;34.42;18.23;;;;;;;;;;5033479;28;20095;-70
2022/03/21 00:13:22;;;;;;;34.67;19.42;;;;;;;;;;5033466;28;20038;-70
2022/03/21 00:15:49;;;;;;;35.25;18.25;;;;;;;;;;5033593;28;20128;-70
2022/03/21 00:18:16;;;;;;;34.05;17.67;;;;;;;;;;5033411;28;20099;-70
2022/03/21 00:20:42;;;;;;;33.88;17.88;;;;;;;;;;5033442;28;20049;-70
2022/03/21 00:23:09;;;;;;;36.80;20.20;;;;;;;;;;5033222;28;20081;-70
2022/03/21 00:25:35;;;;;;;38.85;18.42;;;;;;;;;;5033362;28;20046;-70
2022/03/21 00:28:02;;;;;;;40.28;19.48;;;;;;;;;;5033134;28;20041;-70
2022/03/21 00:30:29;;;;;;;36.83;19.98;;;;;;;;;;5031834;28;20053;-70
2022/03/21 00:32:55;;;;;;;37.80;18.73;;;;;;;;;;5033269;28;20045;-70
2022/03/21 00:35:21;;;;;;;35.85;19.23;;;;;;;;;;5033422;28;20041;-70
2022/03/21 00:37:47;;;;;;;39.42;19.17;;;;;;;;;;5031831;28;20513;-70
2022/03/21 00:40:14;;;;;;;32.88;18.15;;;;;;;;;;5015155;28;20112;-70
2022/03/21 00:42:41;;;;;;;27.27;16.92;;;;;;;;;;5033309;28;20081;-70
2022/03/21 00:45:09;;;;;;;31.13;17.63;;;;;;;;;;5033357;28;20123;-70
2022/03/21 00:47:35;;;;;;;38.10;19.85;;;;;;;;;;5033202;28;20492;-70
2022/03/21 00:50:01;;;;;;;35.65;19.25;;;;;;;;;;5033158;28;20037;-69
2022/03/21 00:52:28;;;;;;;34.35;18.35;;;;;;;;;;5015483;28;20138;-70
2022/03/21 00:54:55;;;;;;;40.95;20.98;;;;;;;;;;5031779;28;20409;-70
2022/03/21 00:57:21;;;;;;;36.80;19.52;;;;;;;;;;5032838;28;20073;-70
2022/03/21 00:59:47;;;;;;;40.28;19.88;;;;;;;;;;5033179;28;20060;-70
2022/03/21 01:02:13;;;;;;;36.90;18.98;;;;;;;;;;5032929;28;20041;-69
2022/03/21 01:04:39;;;;;;;37.90;19.42;;;;;;;;;;5033308;28;20050;-70
2022/03/21 01:07:06;;;;;;;33.63;18.75;;;;;;;;;;5037047;28;20038;-70
2022/03/21 01:09:32;;;;;;;32.95;18.60;;;;;;;;;;5019317;28;20115;-70
2022/03/21 01:12:03;;;;;;;31.60;17.70;;;;;;;;;;5036310;28;20103;-70
2022/03/21 01:14:29;;;;;;;33.03;17.55;;;;;;;;;;5039431;28;20045;-70
2022/03/21 01:16:56;;;;;;;35.25;19.20;;;;;;;;;;5037796;28;20531;-70
2022/03/21 01:19:22;;;;;;;36.72;19.00;;;;;;;;;;5037104;28;20050;-70
2022/03/21 01:21:48;;;;;;;38.28;19.58;;;;;;;;;;5036746;28;20057;-70
2022/03/21 01:24:14;;;;;;;33.95;19.45;;;;;;;;;;5036395;28;20084;-70
2022/03/21 01:26:40;;;;;;;44.58;21.27;;;;;;;;;;5036560;28;20072;-70
2022/03/21 01:29:06;;;;;;;33.83;19.77;;;;;;;;;;5036317;28;20519;-70
2022/03/21 01:31:33;;;;;;;44.03;19.88;;;;;;;;;;5036147;28;20072;-70
2022/03/21 01:33:59;;;;;;;41.65;21.40;;;;;;;;;;5036266;28;20060;-70
2022/03/21 01:36:25;;;;;;;32.88;19.27;;;;;;;;;;5036448;28;20046;-70
2022/03/21 01:38:51;;;;;;;35.65;20.83;;;;;;;;;;5034494;28;20092;-70
2022/03/21 01:41:17;;;;;;;37.90;20.92;;;;;;;;;;5034935;28;20508;-70
2022/03/21 01:43:57;;;;;;;33.00;18.90;;;;;;;;;;5034797;28;20050;-70
2022/03/21 01:46:23;;;;;;;34.55;18.58;;;;;;;;;;5034801;28;20049;-70
2022/03/21 01:48:49;;;;;;;35.30;18.55;;;;;;;;;;5035884;28;20404;-70
2022/03/21 01:51:15;;;;;;;35.78;18.65;;;;;;;;;;5035962;28;20034;-70
2022/03/21 01:56:27;;;;;;;37.00;18.77;;;;;;;;;;5036072;28;20436;-70
2022/03/21 01:58:53;;;;;;;33.88;18.55;;;;;;;;;;5035952;28;20072;-70
2022/03/21 02:01:19;;;;;;;34.30;18.08;;;;;;;;;;5035871;28;20048;-70
2022/03/21 02:03:45;;;;;;;36.78;16.63;;;;;;;;;;5035743;28;20475;-70
2022/03/21 02:06:11;;;;;;;36.42;18.27;;;;;;;;;;5035617;28;20103;-70
2022/03/21 02:08:37;;;;;;;33.10;16.58;;;;;;;;;;5035720;28;20440;-70
2022/03/21 02:11:04;;;;;;;31.42;17.00;;;;;;;;;;5035649;28;20489;-70
2022/03/21 02:13:35;;;;;;;34.60;17.17;;;;;;;;;;5036317;28;20045;-70
2022/03/21 02:16:01;;;;;;;32.03;16.33;;;;;;;;;;5035405;28;20069;-70
2022/03/21 02:18:28;;;;;;;35.17;17.65;;;;;;;;;;5035552;28;20046;-70
2022/03/21 02:20:55;;;;;;;34.20;17.42;;;;;;;;;;5034501;28;20393;-70
2022/03/21 02:23:29;;;;;;;36.85;18.92;;;;;;;;;;5017897;28;20049;-71
2022/03/21 02:25:55;;;;;;;41.85;18.70;;;;;;;;;;5017668;28;20081;-71
2022/03/21 02:28:22;;;;;;;37.60;18.48;;;;;;;;;;5035199;28;20049;-71
2022/03/21 02:30:49;;;;;;;35.72;17.77;;;;;;;;;;5035283;28;20049;-70
2022/03/21 02:33:16;;;;;;;34.67;17.58;;;;;;;;;;5035213;28;20053;-70
2022/03/21 02:35:51;;;;;;;32.63;18.15;;;;;;;;;;5035397;28;20048;-70
2022/03/21 02:38:18;;;;;;;39.33;19.30;;;;;;;;;;5034995;28;20046;-70
2022/03/21 02:40:44;;;;;;;37.00;17.63;;;;;;;;;;5034181;28;20084;-70
2022/03/21 02:43:10;;;;;;;35.45;18.17;;;;;;;;;;5035254;28;20455;-70
2022/03/21 02:45:36;;;;;;;34.72;17.80;;;;;;;;;;5033938;28;20050;-70
2022/03/21 02:48:02;;;;;;;35.20;18.52;;;;;;;;;;5035150;28;20141;-70
2022/03/21 02:50:40;;;;;;;32.67;18.67;;;;;;;;;;5033931;28;20045;-70
2022/03/21 02:53:09;;;;;;;32.45;17.20;;;;;;;;;;5033938;28;20045;-70
2022/03/21 02:55:35;;;;;;;33.65;18.95;;;;;;;;;;5035274;28;20092;-70
2022/03/21 02:58:02;;;;;;;31.95;18.17;;;;;;;;;;5017049;28;20046;-71
2022/03/21 03:00:28;;;;;;;34.38;18.25;;;;;;;;;;5035192;28;20103;-70
2022/03/21 03:02:54;;;;;;;36.60;18.98;;;;;;;;;;5034998;28;20075;-70
2022/03/21 03:05:20;;;;;;;31.42;17.88;;;;;;;;;;5034926;28;20077;-70
2022/03/21 03:07:46;;;;;;;37.25;19.88;;;;;;;;;;5034688;28;20033;-70
2022/03/21 03:10:12;;;;;;;34.20;18.55;;;;;;;;;;5034819;28;20049;-70
2022/03/21 03:12:38;;;;;;;34.20;19.10;;;;;;;;;;5034687;28;20044;-70
2022/03/21 03:15:05;;;;;;;33.95;17.50;;;;;;;;;;5034768;28;20041;-70
2022/03/21 03:17:31;;;;;;;36.20;19.02;;;;;;;;;;5034828;28;20045;-70
2022/03/21 03:19:57;;;;;;;40.05;18.95;;;;;;;;;;5034681;28;20049;-70
2022/03/21 03:22:24;;;;;;;37.22;18.73;;;;;;;;;;5034401;28;20048;-70
2022/03/21 03:24:50;;;;;;;31.88;17.15;;;;;;;;;;5016774;28;20045;-70
2022/03/21 03:27:16;;;;;;;34.22;16.95;;;;;;;;;;5033781;28;20424;-70
2022/03/21 03:29:42;;;;;;;35.15;16.45;;;;;;;;;;5034116;28;20048;-70
2022/03/21 03:32:09;;;;;;;32.60;16.58;;;;;;;;;;5016708;28;20045;-70
2022/03/21 03:34:35;;;;;;;32.03;17.33;;;;;;;;;;5017541;28;20049;-70
2022/03/21 03:37:01;;;;;;;33.63;18.10;;;;;;;;;;5034212;28;20041;-70
2022/03/21 03:39:28;;;;;;;34.00;17.35;;;;;;;;;;5016591;28;20118;-70
2022/03/21 03:41:55;;;;;;;29.58;15.38;;;;;;;;;;5035079;28;20053;-71
2022/03/21 03:44:22;;;;;;;33.15;17.00;;;;;;;;;;5035683;28;20132;-70
2022/03/21 03:46:48;;;;;;;29.50;16.52;;;;;;;;;;5034218;28;20050;-70
2022/03/21 03:49:14;;;;;;;31.08;16.30;;;;;;;;;;5015963;28;20092;-70
2022/03/21 03:51:41;;;;;;;32.35;16.42;;;;;;;;;;5034036;28;20136;-71
2022/03/21 03:54:07;;;;;;;32.92;16.85;;;;;;;;;;5032569;28;20417;-71
2022/03/21 03:56:33;;;;;;;35.88;17.85;;;;;;;;;;5033494;28;20076;-70
2022/03/21 03:58:59;;;;;;;31.25;16.42;;;;;;;;;;5033000;28;20076;-71
2022/03/21 04:01:25;;;;;;;31.98;16.88;;;;;;;;;;5033000;28;20408;-70
2022/03/21 04:03:51;;;;;;;32.08;16.58;;;;;;;;;;5033921;28;20132;-70
2022/03/21 04:06:18;;;;;;;35.17;16.95;;;;;;;;;;5032869;28;20458;-70
2022/03/21 04:08:45;;;;;;;42.42;18.70;;;;;;;;;;5034389;28;20042;-70
2022/03/21 04:11:12;;;;;;;73.88;22.83;;;;;;;;;;5036320;28;20041;-70
2022/03/21 04:13:38;;;;;;;41.63;18.13;;;;;;;;;;5037570;28;20045;-70
2022/03/21 04:16:04;;;;;;;52.10;19.25;;;;;;;;;;5036743;28;20068;-71
2022/03/21 04:18:30;;;;;;;41.25;17.80;;;;;;;;;;5036698;28;20095;-71
2022/03/21 04:20:56;;;;;;;42.53;17.50;;;;;;;;;;5035452;28;20045;-70
2022/03/21 04:23:22;;;;;;;37.30;16.75;;;;;;;;;;5035449;28;20193;-70
2022/03/21 04:25:48;;;;;;;36.85;16.92;;;;;;;;;;5038404;28;20493;-71
2022/03/21 04:28:15;;;;;;;42.78;18.33;;;;;;;;;;5037202;28;20045;-71
2022/03/21 04:30:41;;;;;;;34.70;16.55;;;;;;;;;;5034986;28;20489;-70
2022/03/21 04:33:12;;;;;;;32.80;16.50;;;;;;;;;;5035677;28;20064;-71
2022/03/21 04:35:38;;;;;;;39.85;18.50;;;;;;;;;;5035442;28;20568;-71
2022/03/21 04:38:12;;;;;;;30.35;16.05;;;;;;;;;;5034848;28;20051;-71
2022/03/21 04:40:39;;;;;;;37.22;18.08;;;;;;;;;;5035263;28;20069;-71
2022/03/21 04:43:05;;;;;;;36.53;18.08;;;;;;;;;;5002617;28;20052;-71
2022/03/21 04:45:31;;;;;;;36.97;17.85;;;;;;;;;;5035369;28;20404;-71
2022/03/21 04:47:57;;;;;;;33.75;16.80;;;;;;;;;;5034324;28;20057;-71
2022/03/21 04:50:23;;;;;;;32.70;17.48;;;;;;;;;;5033695;28;20055;-71
2022/03/21 04:52:49;;;;;;;47.90;18.77;;;;;;;;;;5032566;28;20049;-71
2022/03/21 04:55:15;;;;;;;44.38;18.35;;;;;;;;;;5034046;28;20052;-71
2022/03/21 04:57:41;;;;;;;33.90;16.25;;;;;;;;;;5031837;28;20045;-71
2022/03/21 05:00:07;;;;;;;40.10;18.58;;;;;;;;;;5033081;28;20052;-71
2022/03/21 05:02:33;;;;;;;34.97;16.90;;;;;;;;;;5034730;28;20125;-70
2022/03/21 05:04:59;;;;;;;34.95;16.70;;;;;;;;;;5034477;28;20073;-71
2022/03/21 05:07:25;;;;;;;50.35;20.02;;;;;;;;;;5015652;28;20042;-71
2022/03/21 05:09:51;;;;;;;45.28;18.00;;;;;;;;;;5033324;28;20054;-71
2022/03/21 05:12:18;;;;;;;41.70;18.40;;;;;;;;;;5033088;28;20408;-70
2022/03/21 05:14:44;;;;;;;72.07;23.65;;;;;;;;;;5033297;28;20046;-71
2022/03/21 05:17:10;;;;;;;67.32;23.58;;;;;;;;;;5033767;28;20052;-71
2022/03/21 05:19:37;;;;;;;73.45;22.70;;;;;;;;;;5033479;28;20489;-70
2022/03/21 05:22:06;;;;;;;48.05;20.02;;;;;;;;;;5033588;28;20046;-71
2022/03/21 05:32:47;;;;;;;65.32;21.42;;;;;;;;;;5053292;28;20416;-70
2022/03/21 05:37:58;;;;;;;58.42;22.60;;;;;;;;;;5053183;28;20044;-71
2022/03/21 05:40:35;;;;;;;73.72;23.85;;;;;;;;;;5035006;28;20420;-71
2022/03/21 05:43:02;;;;;;;41.47;19.05;;;;;;;;;;5053098;28;20049;-71
2022/03/21 05:45:28;;;;;;;75.68;25.85;;;;;;;;;;5037179;28;20200;-71
2022/03/21 05:50:40;;;;;;;42.35;18.38;;;;;;;;;;5053291;28;20468;-71
2022/03/21 05:53:08;;;;;;;58.78;20.60;;;;;;;;;;5056228;28;20051;-70
2022/03/21 05:55:35;;;;;;;62.80;22.55;;;;;;;;;;5056348;28;20049;-70
2022/03/21 05:58:01;;;;;;;68.85;22.52;;;;;;;;;;5056347;28;20049;-70
2022/03/21 06:00:27;;;;;;;58.33;20.70;;;;;;;;;;5056036;28;20175;-71
2022/03/21 06:02:53;;;;;;;46.20;19.25;;;;;;;;;;5055917;28;20053;-70
2022/03/21 06:05:20;;;;;;;75.88;26.35;;;;;;;;;;5038102;28;20060;-70
2022/03/21 06:07:46;;;;;;;107.60;32.30;;;;;;;;;;5055563;28;20123;-70
2022/03/21 06:10:13;;;;;;;79.50;29.20;;;;;;;;;;5055802;28;20045;-71
2022/03/21 06:12:39;;;;;;;98.38;30.17;;;;;;;;;;5055870;28;20076;-71
2022/03/21 06:15:06;;;;;;;96.35;30.30;;;;;;;;;;5037577;28;20072;-71
2022/03/21 06:17:36;;;;;;;144.20;35.88;;;;;;;;;;5037577;28;20059;-71
2022/03/21 06:20:02;;;;;;;219.20;49.13;;;;;;;;;;5056070;28;20053;-71
2022/03/21 06:22:28;;;;;;;165.10;42.92;;;;;;;;;;5056250;28;20087;-71
2022/03/21 06:24:55;;;;;;;154.57;39.90;;;;;;;;;;5037677;28;20457;-71
2022/03/21 06:27:22;;;;;;;108.95;32.00;;;;;;;;;;5056410;28;20043;-71
2022/03/21 06:29:48;;;;;;;102.15;31.90;;;;;;;;;;5055314;28;20048;-71
2022/03/21 06:32:14;;;;;;;108.60;33.50;;;;;;;;;;5055188;28;20045;-71
2022/03/21 06:34:40;;;;;;;94.05;28.75;;;;;;;;;;5037193;28;20396;-71
2022/03/21 06:37:06;;;;;;;75.00;27.00;;;;;;;;;;5055347;28;20044;-71
2022/03/21 06:39:32;;;;;;;143.18;39.85;;;;;;;;;;5054919;28;20176;-71
2022/03/21 06:41:58;;;;;;;220.20;55.25;;;;;;;;;;5055127;28;20091;-71
2022/03/21 06:44:24;;;;;;;141.27;40.08;;;;;;;;;;5055337;28;20088;-71
2022/03/21 06:46:50;;;;;;;126.72;37.92;;;;;;;;;;5020450;28;20092;-71
2022/03/21 06:49:16;;;;;;;118.78;35.13;;;;;;;;;;5020313;28;20045;-72
2022/03/21 06:51:42;;;;;;;92.68;30.45;;;;;;;;;;5055043;28;20488;-71
2022/03/21 06:54:08;;;;;;;97.93;31.20;;;;;;;;;;5036897;28;20041;-72
2022/03/21 06:56:34;;;;;;;72.97;27.77;;;;;;;;;;5037263;28;20037;-71
2022/03/21 06:59:00;;;;;;;86.45;30.98;;;;;;;;;;5054810;28;20373;-71
2022/03/21 07:01:26;;;;;;;82.30;31.65;;;;;;;;;;5054635;28;20099;-71
2022/03/21 07:03:52;;;;;;;85.32;33.45;;;;;;;;;;5053173;28;20041;-71
2022/03/21 07:06:19;;;;;;;72.72;32.25;;;;;;;;;;5036539;28;20044;-71
2022/03/21 07:08:51;;;;;;;75.00;31.98;;;;;;;;;;5054503;28;20128;-71
2022/03/21 07:11:18;;;;;;;74.38;32.75;;;;;;;;;;5020597;28;20045;-71
2022/03/21 07:13:44;;;;;;;72.85;30.67;;;;;;;;;;5054238;28;20499;-71
2022/03/21 07:16:15;;;;;;;70.80;31.23;;;;;;;;;;5036559;28;20124;-70
2022/03/21 07:18:41;;;;;;;74.63;33.25;;;;;;;;;;5054397;28;20040;-71
2022/03/21 07:21:07;;;;;;;80.22;34.70;;;;;;;;;;5054293;28;20407;-71
2022/03/21 07:23:34;;;;;;;80.43;33.90;;;;;;;;;;5036111;28;20048;-70
2022/03/21 07:26:02;;;;;;;77.22;33.50;;;;;;;;;;5054408;28;20091;-71
2022/03/21 07:28:28;;;;;;;79.97;34.13;;;;;;;;;;5054280;28;20068;-72
2022/03/21 07:30:55;;;;;;;72.03;30.70;;;;;;;;;;5035957;28;20407;-72
2022/03/21 07:33:21;;;;;;;77.70;33.15;;;;;;;;;;5054552;28;20045;-72
2022/03/21 07:35:47;;;;;;;69.88;30.70;;;;;;;;;;5037777;28;20045;-72
2022/03/21 07:38:13;;;;;;;63.35;27.17;;;;;;;;;;5055210;28;20052;-72
2022/03/21 07:40:39;;;;;;;76.40;31.58;;;;;;;;;;5054085;28;20057;-74
2022/03/21 07:43:05;;;;;;;64.45;28.85;;;;;;;;;;5035931;28;20048;-72
2022/03/21 07:48:17;;;;;;;58.15;25.92;;;;;;;;;;5053860;28;20070;-73
2022/03/21 07:50:43;;;;;;;63.97;26.45;;;;;;;;;;5053636;28;20049;-73
2022/03/21 07:53:10;;;;;;;54.15;24.73;;;;;;;;;;5036102;28;20056;-72
2022/03/21 07:55:36;;;;;;;46.15;21.95;;;;;;;;;;5052033;28;20500;-73
2022/03/21 07:58:02;;;;;;;41.70;20.55;;;;;;;;;;5038819;28;20112;-73
2022/03/21 08:00:30;;;;;;;40.00;19.48;;;;;;;;;;5033859;28;20045;-72
2022/03/21 08:02:58;;;;;;;37.97;20.13;;;;;;;;;;5033343;28;20103;-73
2022/03/21 08:05:24;;;;;;;35.90;18.77;;;;;;;;;;5033672;28;20164;-72
2022/03/21 08:07:51;;;;;;;40.80;20.25;;;;;;;;;;5033415;28;20042;-74
2022/03/21 08:10:21;;;;;;;46.65;19.85;;;;;;;;;;5033589;28;20091;-73
2022/03/21 08:12:48;;;;;;;32.22;17.45;;;;;;;;;;5033414;28;20049;-72
2022/03/21 08:15:17;;;;;;;51.53;19.50;;;;;;;;;;5032960;28;20518;-72
2022/03/21 08:17:56;;;;;;;34.80;16.35;;;;;;;;;;4999259;28;20505;-73
2022/03/21 08:20:22;;;;;;;32.30;17.15;;;;;;;;;;5033537;28;20125;-73
2022/03/21 08:22:48;;;;;;;35.38;16.67;;;;;;;;;;5033314;28;20045;-72
2022/03/21 08:25:17;;;;;;;27.35;15.63;;;;;;;;;;5033208;28;20415;-73
2022/03/21 08:27:44;;;;;;;38.03;16.60;;;;;;;;;;5033415;28;20052;-72
2022/03/21 08:30:12;;;;;;;37.03;17.60;;;;;;;;;;5033149;28;20071;-73
2022/03/21 08:32:38;;;;;;;36.05;16.30;;;;;;;;;;5033246;28;20050;-72
2022/03/21 08:35:04;;;;;;;42.67;17.67;;;;;;;;;;5033351;28;20041;-73
2022/03/21 08:37:30;;;;;;;28.90;15.18;;;;;;;;;;5033318;28;20074;-72
2022/03/21 08:39:56;;;;;;;26.15;14.13;;;;;;;;;;5015317;28;20489;-72
2022/03/21 08:42:22;;;;;;;21.67;12.75;;;;;;;;;;5033121;28;20061;-72
2022/03/21 08:44:48;;;;;;;36.28;15.98;;;;;;;;;;5033344;28;20045;-72
2022/03/21 08:47:14;;;;;;;26.65;14.95;;;;;;;;;;5033405;28;20129;-72
2022/03/21 08:49:40;;;;;;;26.83;15.10;;;;;;;;;;5033063;28;20044;-72
2022/03/21 08:52:06;;;;;;;42.55;17.60;;;;;;;;;;4999121;28;20103;-72
2022/03/21 08:54:32;;;;;;;35.53;16.83;;;;;;;;;;5031628;28;20493;-72
2022/03/21 08:56:58;;;;;;;30.23;15.60;;;;;;;;;;5033067;28;20112;-73
2022/03/21 08:59:24;;;;;;;26.52;13.82;;;;;;;;;;5033023;28;20038;-73
2022/03/21 09:01:51;;;;;;;25.98;14.40;;;;;;;;;;5031681;28;20416;-73
2022/03/21 09:04:17;;;;;;;38.95;16.52;;;;;;;;;;5033038;28;20037;-73
2022/03/21 09:06:43;;;;;;;24.48;14.23;;;;;;;;;;5032910;28;20135;-74
2022/03/21 09:09:09;;;;;;;30.23;15.75;;;;;;;;;;5032954;28;20045;-73
2022/03/21 09:11:35;;;;;;;26.77;14.68;;;;;;;;;;5033016;28;20080;-73
2022/03/21 09:14:01;;;;;;;35.28;16.40;;;;;;;;;;5032796;28;20041;-73
2022/03/21 09:16:27;;;;;;;25.67;14.73;;;;;;;;;;5032975;28;20037;-73
2022/03/21 09:18:53;;;;;;;42.05;17.42;;;;;;;;;;5032677;28;20511;-73
2022/03/21 09:21:19;;;;;;;31.40;17.40;;;;;;;;;;5032614;28;20045;-72
2022/03/21 09:23:45;;;;;;;37.22;17.95;;;;;;;;;;5033062;28;20499;-73
2022/03/21 09:26:11;;;;;;;26.60;15.43;;;;;;;;;;5033847;28;20084;-73
2022/03/21 09:28:43;;;;;;;32.25;16.42;;;;;;;;;;5035514;28;20056;-73
2022/03/21 09:31:09;;;;;;;35.63;17.88;;;;;;;;;;5018971;28;20046;-73
2022/03/21 09:33:36;;;;;;;30.42;17.70;;;;;;;;;;5002721;28;20396;-72
2022/03/21 09:36:03;;;;;;;29.73;17.30;;;;;;;;;;5036142;28;20152;-72
2022/03/21 09:38:29;;;;;;;33.80;18.35;;;;;;;;;;5018794;28;20058;-73
2022/03/21 09:40:55;;;;;;;32.00;18.77;;;;;;;;;;5018845;28;20041;-73
2022/03/21 09:43:21;;;;;;;32.40;19.17;;;;;;;;;;5036385;28;20042;-73
2022/03/21 09:45:47;;;;;;;32.50;18.33;;;;;;;;;;5036215;28;20058;-73
2022/03/21 09:48:16;;;;;;;31.88;18.55;;;;;;;;;;5036327;28;20046;-72
2022/03/21 09:50:44;;;;;;;30.88;18.60;;;;;;;;;;5034913;28;20054;-73
2022/03/21 09:53:11;;;;;;;36.90;18.40;;;;;;;;;;5036997;28;20071;-73
2022/03/21 09:55:38;;;;;;;35.13;19.38;;;;;;;;;;5036146;28;20310;-73
2022/03/21 09:58:04;;;;;;;34.53;19.33;;;;;;;;;;5035177;28;20046;-73
2022/03/21 10:00:32;;;;;;;31.77;19.60;;;;;;;;;;5036185;28;20160;-73
2022/03/21 10:02:59;;;;;;;34.08;19.60;;;;;;;;;;5036036;28;20413;-73
2022/03/21 10:05:44;;;;;;;38.03;20.10;;;;;;;;;;5018222;28;20068;-73
2022/03/21 10:08:12;;;;;;;36.70;19.73;;;;;;;;;;5036022;28;20139;-72
2022/03/21 10:10:39;;;;;;;41.28;20.83;;;;;;;;;;5035965;28;20042;-72
2022/03/21 10:13:11;;;;;;;45.28;21.48;;;;;;;;;;5036166;28;20048;-73
2022/03/21 10:15:37;;;;;;;31.30;19.63;;;;;;;;;;5034282;28;20049;-73
2022/03/21 10:18:10;;;;;;;36.58;19.80;;;;;;;;;;5035891;28;20077;-73
2022/03/21 10:20:37;;;;;;;36.38;19.88;;;;;;;;;;5036187;28;20382;-73
2022/03/21 10:23:16;;;;;;;43.47;20.75;;;;;;;;;;5035542;28;20042;-73
2022/03/21 10:25:42;;;;;;;;;;;;;;;;;;5018331;28;20523;-73
2022/03/21 10:28:08;;;;;;;48.33;21.95;;;;;;;;;;5035302;28;19978;-73
2022/03/21 10:30:41;;;;;;;35.20;19.45;;;;;;;;;;5001752;28;20512;-73
2022/03/21 10:33:08;;;;;;;36.28;19.77;;;;;;;;;;5035870;28;20041;-73
2022/03/21 10:35:35;;;;;;;37.67;20.30;;;;;;;;;;5036094;28;20523;-74
2022/03/21 10:38:03;;;;;;;35.83;19.88;;;;;;;;;;5035847;28;20121;-74
2022/03/21 10:40:30;;;;;;;36.78;19.98;;;;;;;;;;5036300;28;20053;-74
2022/03/21 10:43:05;;;;;;;35.85;19.92;;;;;;;;;;5036646;28;20097;-74
2022/03/21 10:45:37;;;;;;;33.13;18.55;;;;;;;;;;5036236;28;20111;-74
2022/03/21 10:48:07;;;;;;;35.95;18.60;;;;;;;;;;5038489;28;20076;-74
2022/03/21 10:50:34;;;;;;;36.40;19.20;;;;;;;;;;5036626;28;20500;-74
2022/03/21 10:53:05;;;;;;;32.85;18.88;;;;;;;;;;5036116;28;20045;-73
2022/03/21 10:55:31;;;;;;;30.48;18.63;;;;;;;;;;5035040;28;20045;-73
2022/03/21 10:57:57;;;;;;;40.28;19.27;;;;;;;;;;5035189;28;20049;-73
2022/03/21 11:00:24;;;;;;;48.15;21.35;;;;;;;;;;5035026;28;20050;-73
2022/03/21 11:02:51;;;;;;;37.33;19.52;;;;;;;;;;5034842;28;20049;-73
2022/03/21 11:05:17;;;;;;;41.90;21.25;;;;;;;;;;5034960;28;20077;-73
2022/03/21 11:07:44;;;;;;;54.03;23.60;;;;;;;;;;5035524;28;20562;-73
2022/03/21 11:10:10;;;;;;;32.08;19.08;;;;;;;;;;5036037;28;20092;-73
2022/03/21 11:12:37;;;;;;;32.92;19.77;;;;;;;;;;5035692;28;20084;-73
2022/03/21 11:15:05;;;;;;;36.58;20.17;;;;;;;;;;5035474;28;20042;-73
2022/03/21 11:17:32;;;;;;;37.28;20.88;;;;;;;;;;5035235;28;20187;-73
2022/03/21 11:19:58;;;;;;;36.95;20.17;;;;;;;;;;5035205;28;20052;-73
2022/03/21 11:22:24;;;;;;;30.65;19.33;;;;;;;;;;5035037;28;20050;-73
2022/03/21 11:24:51;;;;;;;49.55;24.02;;;;;;;;;;5034881;28;20045;-74
2022/03/21 11:27:27;;;;;;;37.20;21.42;;;;;;;;;;5035119;28;20056;-74
2022/03/21 11:30:06;;;;;;;44.38;21.95;;;;;;;;;;5034140;28;20480;-73
2022/03/21 11:32:38;;;;;;;79.75;30.27;;;;;;;;;;5034755;28;20091;-73
2022/03/21 11:35:14;;;;;;;27.13;18.35;;;;;;;;;;5034659;28;20074;-74
2022/03/21 11:37:42;;;;;;;31.33;19.17;;;;;;;;;;5034781;28;20049;-73
2022/03/21 11:40:26;;;;;;;62.25;26.15;;;;;;;;;;5016864;28;20476;-73
2022/03/21 11:42:53;;;;;;;42.08;22.05;;;;;;;;;;5034526;28;20099;-74
2022/03/21 11:45:27;;;;;;;36.92;21.02;;;;;;;;;;5034061;28;20045;-73
2022/03/21 11:48:12;;;;;;;28.85;20.30;;;;;;;;;;5034071;28;20049;-74
2022/03/21 11:50:38;;;;;;;34.05;20.63;;;;;;;;;;5034048;28;20041;-74
2022/03/21 11:53:05;;;;;;;30.33;19.50;;;;;;;;;;5033857;28;20412;-73
2022/03/21 11:55:36;;;;;;;30.80;21.08;;;;;;;;;;5033866;28;20045;-73
2022/03/21 11:58:21;;;;;;;43.15;22.55;;;;;;;;;;5034158;28;20050;-73
2022/03/21 12:01:06;;;;;;;47.83;23.00;;;;;;;;;;5032435;28;20033;-73
2022/03/21 12:03:33;;;;;;;58.00;26.67;;;;;;;;;;5033642;28;20400;-73
2022/03/21 12:06:19;;;;;;;35.40;21.58;;;;;;;;;;5034002;28;20536;-74
2022/03/21 12:08:46;;;;;;;33.20;19.67;;;;;;;;;;5033688;28;20045;-73
2022/03/21 12:11:33;;;;;;;29.20;20.13;;;;;;;;;;5032756;28;20041;-73
2022/03/21 12:14:19;;;;;;;28.02;20.05;;;;;;;;;;5026172;28;20075;-73
2022/03/21 12:16:45;;;;;;;33.70;20.23;;;;;;;;;;5035416;28;20059;-73
2022/03/21 12:19:11;;;;;;;34.42;20.15;;;;;;;;;;5035800;28;20491;-73
2022/03/21 12:21:37;;;;;;;38.05;23.30;;;;;;;;;;5035820;28;20051;-73
2022/03/21 12:24:13;;;;;;;38.03;22.13;;;;;;;;;;5053336;28;20488;-73
2022/03/21 12:26:47;;;;;;;40.15;23.63;;;;;;;;;;5053183;28;20441;-73
2022/03/21 12:29:31;;;;;;;35.28;21.20;;;;;;;;;;5053425;28;20114;-73
2022/03/21 12:32:16;;;;;;;28.75;20.17;;;;;;;;;;5053108;28;20522;-74
2022/03/21 12:34:44;;;;;;;28.67;19.92;;;;;;;;;;5053393;28;20124;-73
2022/03/21 12:37:24;;;;;;;28.98;19.30;;;;;;;;;;5052930;28;20474;-73
2022/03/21 12:39:50;;;;;;;31.25;19.77;;;;;;;;;;5035128;28;20064;-73
2022/03/21 12:42:18;;;;;;;29.75;20.48;;;;;;;;;;5053145;28;20120;-73
2022/03/21 12:44:44;;;;;;;28.15;19.40;;;;;;;;;;5018775;28;20128;-73
2022/03/21 12:47:10;;;;;;;45.42;21.95;;;;;;;;;;5035118;28;20125;-73
2022/03/21 12:49:49;;;;;;;35.20;20.35;;;;;;;;;;5052767;28;20049;-74
2022/03/21 12:52:44;;;;;;;27.27;19.63;;;;;;;;;;5053066;28;20044;-74
2022/03/21 12:55:15;;;;;;;29.92;19.60;;;;;;;;;;5040779;28;20146;-73
2022/03/21 12:57:57;;;;;;;28.17;19.02;;;;;;;;;;5018866;28;20056;-74
2022/03/21 13:00:26;;;;;;;31.83;20.67;;;;;;;;;;5054335;28;20049;-73
2022/03/21 13:02:55;;;;;;;26.42;18.85;;;;;;;;;;5057451;28;20041;-73
2022/03/21 13:10:53;;;;;;;29.70;20.58;;;;;;;;;;5057532;28;20049;-73
2022/03/21 13:13:19;;;;;;;25.67;20.20;;;;;;;;;;5039243;28;20056;-74
2022/03/21 13:15:45;;;;;;;31.25;20.52;;;;;;;;;;5057088;28;20053;-73
2022/03/21 13:18:11;;;;;;;34.45;21.88;;;;;;;;;;5039192;28;20041;-74
2022/03/21 13:20:40;;;;;;;31.27;22.15;;;;;;;;;;5039546;28;20071;-73
2022/03/21 13:23:07;;;;;;;29.60;21.23;;;;;;;;;;5056774;28;20045;-73
2022/03/21 13:25:34;;;;;;;34.92;22.38;;;;;;;;;;5050337;28;20119;-73
2022/03/21 13:28:09;;;;;;;52.65;25.17;;;;;;;;;;5046850;28;20092;-74
2022/03/21 13:30:36;;;;;;;32.28;20.95;;;;;;;;;;5057592;28;20088;-74
2022/03/21 13:33:02;;;;;;;29.30;21.58;;;;;;;;;;5040868;28;20041;-74
2022/03/21 13:35:28;;;;;;;29.88;22.05;;;;;;;;;;5037886;28;20050;-75
2022/03/21 13:38:01;;;;;;;32.33;20.48;;;;;;;;;;5040106;28;20045;-74
2022/03/21 13:40:28;;;;;;;30.00;20.52;;;;;;;;;;5040018;28;20068;-74
2022/03/21 13:42:54;;;;;;;24.52;19.67;;;;;;;;;;5056577;28;20080;-74
2022/03/21 13:45:22;;;;;;;28.85;21.67;;;;;;;;;;5058258;28;20377;-74
2022/03/21 13:47:49;;;;;;;29.15;20.75;;;;;;;;;;5056932;28;20041;-74
2022/03/21 13:50:15;;;;;;;27.85;21.02;;;;;;;;;;5057216;28;20041;-74
2022/03/21 13:52:45;;;;;;;29.25;21.23;;;;;;;;;;5057354;28;20102;-74
2022/03/21 13:55:31;;;;;;;45.03;24.83;;;;;;;;;;5039842;28;20100;-75
2022/03/21 13:57:59;;;;;;;30.05;22.33;;;;;;;;;;5036751;28;20041;-73
2022/03/21 14:00:29;;;;;;;31.48;21.15;;;;;;;;;;5037750;28;20053;-72
2022/03/21 14:02:57;;;;;;;32.60;20.98;;;;;;;;;;5039271;28;20055;-72
2022/03/21 14:05:37;;;;;;;31.55;21.75;;;;;;;;;;5036489;28;20124;-72
2022/03/21 14:08:13;;;;;;;31.75;21.25;;;;;;;;;;5036771;28;20052;-74
2022/03/21 14:10:40;;;;;;;29.15;21.15;;;;;;;;;;5038196;28;20033;-73
2022/03/21 14:13:14;;;;;;;28.77;20.48;;;;;;;;;;5037874;28;20041;-73
2022/03/21 14:15:40;;;;;;;27.25;19.80;;;;;;;;;;5038923;28;20420;-74
2022/03/21 14:18:06;;;;;;;29.52;21.13;;;;;;;;;;5038956;28;20056;-74
2022/03/21 14:20:32;;;;;;;29.20;21.33;;;;;;;;;;5037975;28;20041;-74
2022/03/21 14:22:58;;;;;;;45.38;24.02;;;;;;;;;;5037304;28;20041;-75
2022/03/21 14:28:09;;;;;;;33.75;22.73;;;;;;;;;;5035949;28;20488;-75
2022/03/21 14:30:36;;;;;;;44.90;23.73;;;;;;;;;;5036458;28;20069;-74
2022/03/21 14:33:02;;;;;;;29.77;21.95;;;;;;;;;;5018336;28;20061;-74
2022/03/21 14:35:28;;;;;;;39.70;24.02;;;;;;;;;;5034612;28;20049;-75
2022/03/21 14:37:54;;;;;;;32.78;21.52;;;;;;;;;;5036149;28;20099;-73
2022/03/21 14:40:20;;;;;;;29.30;21.88;;;;;;;;;;5033928;28;20053;-74
2022/03/21 14:42:46;;;;;;;45.30;25.58;;;;;;;;;;5035705;28;20095;-74
2022/03/21 14:45:13;;;;;;;37.53;23.15;;;;;;;;;;5035842;28;20053;-74
2022/03/21 14:47:39;;;;;;;34.58;23.02;;;;;;;;;;5035881;28;20041;-73